sensor_id;sensor_type;location;lat;lon;timestamp;temperature;humidity
75719;DHT22;64340;48.534;-3.036;2023-04-30T00:01:49;18.60;71.10
75719;DHT22;64340;48.534;-3.036;2023-04-30T00:04:15;18.60;71.20
75719;DHT22;64340;48.534;-3.036;2023-04-30T00:06:41;18.60;71.30
75719;DHT22;64340;48.534;-3.036;2023-04-30T00:09:06;18.60;71.20
75719;DHT22;64340;48.534;-3.036;2023-04-30T00:11:32;18.60;71.20
75719;DHT22;64340;48.534;-3.036;2023-04-30T00:13:58;18.60;71.10
75719;DHT22;64340;48.534;-3.036;2023-04-30T00:16:23;18.50;70.90
75719;DHT22;64340;48.534;-3.036;2023-04-30T00:18:49;18.50;70.90
75719;DHT22;64340;48.534;-3.036;2023-04-30T00:21:15;18.50;70.90
75719;DHT22;64340;48.534;-3.036;2023-04-30T00:23:41;18.50;70.90
75719;DHT22;64340;48.534;-3.036;2023-04-30T00:26:06;18.40;70.70
75719;DHT22;64340;48.534;-3.036;2023-04-30T00:28:32;18.40;70.80
75719;DHT22;64340;48.534;-3.036;2023-04-30T00:30:58;18.40;70.50
75719;DHT22;64340;48.534;-3.036;2023-04-30T00:33:24;18.40;70.70
75719;DHT22;64340;48.534;-3.036;2023-04-30T00:35:49;18.40;70.70
75719;DHT22;64340;48.534;-3.036;2023-04-30T00:38:15;18.40;70.50
75719;DHT22;64340;48.534;-3.036;2023-04-30T00:40:41;18.30;70.50
75719;DHT22;64340;48.534;-3.036;2023-04-30T00:43:08;18.40;70.50
75719;DHT22;64340;48.534;-3.036;2023-04-30T00:45:33;18.30;70.40
75719;DHT22;64340;48.534;-3.036;2023-04-30T00:47:59;18.30;70.30
75719;DHT22;64340;48.534;-3.036;2023-04-30T00:50:25;18.30;70.10
75719;DHT22;64340;48.534;-3.036;2023-04-30T00:52:51;18.30;70.10
75719;DHT22;64340;48.534;-3.036;2023-04-30T00:55:17;18.30;70.00
75719;DHT22;64340;48.534;-3.036;2023-04-30T00:57:44;18.30;70.00
75719;DHT22;64340;48.534;-3.036;2023-04-30T01:00:11;18.30;70.00
75719;DHT22;64340;48.534;-3.036;2023-04-30T01:02:38;18.20;70.10
75719;DHT22;64340;48.534;-3.036;2023-04-30T01:05:06;18.20;70.10
75719;DHT22;64340;48.534;-3.036;2023-04-30T01:07:33;18.20;70.00
75719;DHT22;64340;48.534;-3.036;2023-04-30T01:10:00;18.20;70.00
75719;DHT22;64340;48.534;-3.036;2023-04-30T01:18:34;18.20;70.20
75719;DHT22;64340;48.534;-3.036;2023-04-30T01:21:04;18.20;70.20
75719;DHT22;64340;48.534;-3.036;2023-04-30T01:24:05;18.20;70.20
75719;DHT22;64340;48.534;-3.036;2023-04-30T01:26:55;18.20;70.10
75719;DHT22;64340;48.534;-3.036;2023-04-30T01:29:24;18.10;70.00
75719;DHT22;64340;48.534;-3.036;2023-04-30T01:31:51;18.10;69.90
75719;DHT22;64340;48.534;-3.036;2023-04-30T01:34:17;18.10;69.90
75719;DHT22;64340;48.534;-3.036;2023-04-30T01:39:58;18.10;69.80
75719;DHT22;64340;48.534;-3.036;2023-04-30T01:42:20;18.10;69.90
75719;DHT22;64340;48.534;-3.036;2023-04-30T01:52:58;18.00;69.60
75719;DHT22;64340;48.534;-3.036;2023-04-30T01:55:40;18.00;69.60
75719;DHT22;64340;48.534;-3.036;2023-04-30T01:58:11;18.00;69.60
75719;DHT22;64340;48.534;-3.036;2023-04-30T02:00:37;18.00;69.70
75719;DHT22;64340;48.534;-3.036;2023-04-30T02:03:03;18.00;69.70
75719;DHT22;64340;48.534;-3.036;2023-04-30T02:05:29;18.00;69.80
75719;DHT22;64340;48.534;-3.036;2023-04-30T02:07:55;18.00;69.60
75719;DHT22;64340;48.534;-3.036;2023-04-30T02:10:23;18.00;69.70
75719;DHT22;64340;48.534;-3.036;2023-04-30T02:12:49;18.00;69.70
75719;DHT22;64340;48.534;-3.036;2023-04-30T02:15:15;18.00;69.60
75719;DHT22;64340;48.534;-3.036;2023-04-30T02:17:41;18.00;69.60
75719;DHT22;64340;48.534;-3.036;2023-04-30T02:20:07;18.00;69.60
75719;DHT22;64340;48.534;-3.036;2023-04-30T02:22:34;17.90;69.60
75719;DHT22;64340;48.534;-3.036;2023-04-30T02:25:00;17.90;69.60
75719;DHT22;64340;48.534;-3.036;2023-04-30T02:27:28;17.90;69.60
75719;DHT22;64340;48.534;-3.036;2023-04-30T02:29:54;17.80;69.60
75719;DHT22;64340;48.534;-3.036;2023-04-30T02:32:20;17.80;69.70
75719;DHT22;64340;48.534;-3.036;2023-04-30T02:34:46;17.80;69.60
75719;DHT22;64340;48.534;-3.036;2023-04-30T02:37:12;17.80;69.70
75719;DHT22;64340;48.534;-3.036;2023-04-30T02:39:38;17.80;69.50
75719;DHT22;64340;48.534;-3.036;2023-04-30T02:42:04;17.80;69.80
75719;DHT22;64340;48.534;-3.036;2023-04-30T02:44:31;17.80;69.80
75719;DHT22;64340;48.534;-3.036;2023-04-30T02:46:57;17.80;69.50
75719;DHT22;64340;48.534;-3.036;2023-04-30T02:49:22;17.80;69.60
75719;DHT22;64340;48.534;-3.036;2023-04-30T02:51:48;17.80;69.60
75719;DHT22;64340;48.534;-3.036;2023-04-30T02:54:14;17.80;69.60
75719;DHT22;64340;48.534;-3.036;2023-04-30T02:56:40;17.80;69.50
75719;DHT22;64340;48.534;-3.036;2023-04-30T02:59:06;17.80;69.50
75719;DHT22;64340;48.534;-3.036;2023-04-30T03:01:32;17.80;69.60
75719;DHT22;64340;48.534;-3.036;2023-04-30T03:03:58;17.80;69.60
75719;DHT22;64340;48.534;-3.036;2023-04-30T03:06:24;17.80;69.50
75719;DHT22;64340;48.534;-3.036;2023-04-30T03:08:49;17.80;69.40
75719;DHT22;64340;48.534;-3.036;2023-04-30T03:11:15;17.80;69.50
75719;DHT22;64340;48.534;-3.036;2023-04-30T03:13:42;17.80;69.50
75719;DHT22;64340;48.534;-3.036;2023-04-30T03:16:07;17.80;69.50
75719;DHT22;64340;48.534;-3.036;2023-04-30T03:18:33;17.80;69.50
75719;DHT22;64340;48.534;-3.036;2023-04-30T03:20:59;17.70;69.60
75719;DHT22;64340;48.534;-3.036;2023-04-30T03:23:26;17.80;69.50
75719;DHT22;64340;48.534;-3.036;2023-04-30T03:25:52;17.70;69.50
75719;DHT22;64340;48.534;-3.036;2023-04-30T03:28:18;17.70;69.50
75719;DHT22;64340;48.534;-3.036;2023-04-30T03:30:44;17.70;69.60
75719;DHT22;64340;48.534;-3.036;2023-04-30T03:33:10;17.70;69.60
75719;DHT22;64340;48.534;-3.036;2023-04-30T03:35:36;17.70;69.60
75719;DHT22;64340;48.534;-3.036;2023-04-30T03:38:01;17.60;69.60
75719;DHT22;64340;48.534;-3.036;2023-04-30T03:40:27;17.60;69.70
75719;DHT22;64340;48.534;-3.036;2023-04-30T03:42:53;17.60;69.60
75719;DHT22;64340;48.534;-3.036;2023-04-30T03:45:19;17.60;69.60
75719;DHT22;64340;48.534;-3.036;2023-04-30T03:47:45;17.60;69.70
75719;DHT22;64340;48.534;-3.036;2023-04-30T03:50:11;17.60;69.60
75719;DHT22;64340;48.534;-3.036;2023-04-30T03:52:37;17.60;69.70
75719;DHT22;64340;48.534;-3.036;2023-04-30T03:55:03;17.60;69.60
75719;DHT22;64340;48.534;-3.036;2023-04-30T03:57:29;17.60;69.70
75719;DHT22;64340;48.534;-3.036;2023-04-30T03:59:55;17.60;69.70
75719;DHT22;64340;48.534;-3.036;2023-04-30T04:02:21;17.60;69.60
75719;DHT22;64340;48.534;-3.036;2023-04-30T04:04:47;17.60;69.70
75719;DHT22;64340;48.534;-3.036;2023-04-30T04:07:13;17.60;69.60
75719;DHT22;64340;48.534;-3.036;2023-04-30T04:09:39;17.60;69.50
75719;DHT22;64340;48.534;-3.036;2023-04-30T04:12:05;17.60;69.50
75719;DHT22;64340;48.534;-3.036;2023-04-30T04:14:31;17.60;69.50
75719;DHT22;64340;48.534;-3.036;2023-04-30T04:16:56;17.60;69.50
75719;DHT22;64340;48.534;-3.036;2023-04-30T04:19:25;17.60;69.50
75719;DHT22;64340;48.534;-3.036;2023-04-30T04:21:50;17.60;69.50
75719;DHT22;64340;48.534;-3.036;2023-04-30T04:24:16;17.60;69.50
75719;DHT22;64340;48.534;-3.036;2023-04-30T04:26:42;17.50;69.60
75719;DHT22;64340;48.534;-3.036;2023-04-30T04:29:08;17.50;69.50
75719;DHT22;64340;48.534;-3.036;2023-04-30T04:31:34;17.50;69.50
75719;DHT22;64340;48.534;-3.036;2023-04-30T04:34:02;17.50;69.50
75719;DHT22;64340;48.534;-3.036;2023-04-30T04:36:29;17.50;69.50
75719;DHT22;64340;48.534;-3.036;2023-04-30T04:38:56;17.50;69.60
75719;DHT22;64340;48.534;-3.036;2023-04-30T04:41:22;17.50;69.70
75719;DHT22;64340;48.534;-3.036;2023-04-30T04:43:49;17.50;69.60
75719;DHT22;64340;48.534;-3.036;2023-04-30T04:46:15;17.50;69.60
75719;DHT22;64340;48.534;-3.036;2023-04-30T04:48:42;17.50;69.60
75719;DHT22;64340;48.534;-3.036;2023-04-30T04:51:09;17.50;69.60
75719;DHT22;64340;48.534;-3.036;2023-04-30T04:53:34;17.50;69.60
75719;DHT22;64340;48.534;-3.036;2023-04-30T04:56:01;17.50;69.60
75719;DHT22;64340;48.534;-3.036;2023-04-30T04:58:26;17.50;69.60
75719;DHT22;64340;48.534;-3.036;2023-04-30T05:00:52;17.50;69.70
75719;DHT22;64340;48.534;-3.036;2023-04-30T05:03:19;17.50;69.60
75719;DHT22;64340;48.534;-3.036;2023-04-30T05:05:45;17.50;69.60
75719;DHT22;64340;48.534;-3.036;2023-04-30T05:08:14;17.50;69.60
75719;DHT22;64340;48.534;-3.036;2023-04-30T05:10:40;17.50;69.70
75719;DHT22;64340;48.534;-3.036;2023-04-30T05:13:06;17.50;69.60
75719;DHT22;64340;48.534;-3.036;2023-04-30T05:15:32;17.40;69.60
75719;DHT22;64340;48.534;-3.036;2023-04-30T05:17:57;17.50;69.60
75719;DHT22;64340;48.534;-3.036;2023-04-30T05:20:23;17.40;69.70
75719;DHT22;64340;48.534;-3.036;2023-04-30T05:22:49;17.40;69.70
75719;DHT22;64340;48.534;-3.036;2023-04-30T05:25:15;17.40;69.80
75719;DHT22;64340;48.534;-3.036;2023-04-30T05:27:41;17.40;69.70
75719;DHT22;64340;48.534;-3.036;2023-04-30T05:30:07;17.50;69.70
75719;DHT22;64340;48.534;-3.036;2023-04-30T05:32:33;17.40;69.70
75719;DHT22;64340;48.534;-3.036;2023-04-30T05:34:59;17.40;69.70
75719;DHT22;64340;48.534;-3.036;2023-04-30T05:37:26;17.40;69.60
75719;DHT22;64340;48.534;-3.036;2023-04-30T05:39:51;17.40;69.60
75719;DHT22;64340;48.534;-3.036;2023-04-30T05:42:20;17.40;69.60
75719;DHT22;64340;48.534;-3.036;2023-04-30T05:44:47;17.40;69.70
75719;DHT22;64340;48.534;-3.036;2023-04-30T05:47:13;17.40;69.70
75719;DHT22;64340;48.534;-3.036;2023-04-30T05:49:38;17.40;69.70
75719;DHT22;64340;48.534;-3.036;2023-04-30T05:52:04;17.40;69.70
75719;DHT22;64340;48.534;-3.036;2023-04-30T05:54:30;17.40;69.60
75719;DHT22;64340;48.534;-3.036;2023-04-30T05:56:56;17.40;69.60
75719;DHT22;64340;48.534;-3.036;2023-04-30T05:59:22;17.40;69.50
75719;DHT22;64340;48.534;-3.036;2023-04-30T06:01:47;17.40;69.50
75719;DHT22;64340;48.534;-3.036;2023-04-30T06:04:13;17.40;69.50
75719;DHT22;64340;48.534;-3.036;2023-04-30T06:06:39;17.40;69.40
75719;DHT22;64340;48.534;-3.036;2023-04-30T06:09:05;17.40;69.40
75719;DHT22;64340;48.534;-3.036;2023-04-30T06:11:31;17.40;69.40
75719;DHT22;64340;48.534;-3.036;2023-04-30T06:13:57;17.40;69.40
75719;DHT22;64340;48.534;-3.036;2023-04-30T06:16:23;17.40;69.30
75719;DHT22;64340;48.534;-3.036;2023-04-30T06:18:49;17.40;69.30
75719;DHT22;64340;48.534;-3.036;2023-04-30T06:21:14;17.40;69.30
75719;DHT22;64340;48.534;-3.036;2023-04-30T06:23:40;17.40;69.30
75719;DHT22;64340;48.534;-3.036;2023-04-30T06:26:06;17.40;69.40
75719;DHT22;64340;48.534;-3.036;2023-04-30T06:28:31;17.40;69.30
75719;DHT22;64340;48.534;-3.036;2023-04-30T06:30:57;17.40;69.30
75719;DHT22;64340;48.534;-3.036;2023-04-30T06:33:23;17.40;69.20
75719;DHT22;64340;48.534;-3.036;2023-04-30T06:35:49;17.40;69.30
75719;DHT22;64340;48.534;-3.036;2023-04-30T06:38:20;17.40;69.30
75719;DHT22;64340;48.534;-3.036;2023-04-30T06:40:46;17.40;69.30
75719;DHT22;64340;48.534;-3.036;2023-04-30T06:43:11;17.40;69.30
75719;DHT22;64340;48.534;-3.036;2023-04-30T06:45:38;17.40;69.30
75719;DHT22;64340;48.534;-3.036;2023-04-30T06:48:04;17.50;69.40
75719;DHT22;64340;48.534;-3.036;2023-04-30T06:50:30;17.40;69.50
75719;DHT22;64340;48.534;-3.036;2023-04-30T06:52:56;17.50;69.00
75719;DHT22;64340;48.534;-3.036;2023-04-30T06:55:21;17.50;69.10
75719;DHT22;64340;48.534;-3.036;2023-04-30T06:57:47;17.50;69.10
75719;DHT22;64340;48.534;-3.036;2023-04-30T07:00:13;17.40;69.20
75719;DHT22;64340;48.534;-3.036;2023-04-30T07:02:40;17.40;69.20
75719;DHT22;64340;48.534;-3.036;2023-04-30T07:05:06;17.50;69.10
75719;DHT22;64340;48.534;-3.036;2023-04-30T07:07:32;17.50;69.10
75719;DHT22;64340;48.534;-3.036;2023-04-30T07:09:58;17.50;69.30
75719;DHT22;64340;48.534;-3.036;2023-04-30T07:12:24;17.50;69.30
75719;DHT22;64340;48.534;-3.036;2023-04-30T07:14:49;17.50;69.40
75719;DHT22;64340;48.534;-3.036;2023-04-30T07:17:15;17.50;69.40
75719;DHT22;64340;48.534;-3.036;2023-04-30T07:19:41;17.50;69.40
75719;DHT22;64340;48.534;-3.036;2023-04-30T07:22:07;17.50;69.40
75719;DHT22;64340;48.534;-3.036;2023-04-30T07:24:33;17.50;69.70
75719;DHT22;64340;48.534;-3.036;2023-04-30T07:26:59;17.50;69.80
75719;DHT22;64340;48.534;-3.036;2023-04-30T07:29:27;17.50;69.80
75719;DHT22;64340;48.534;-3.036;2023-04-30T07:31:54;17.50;69.80
75719;DHT22;64340;48.534;-3.036;2023-04-30T07:34:21;17.50;69.60
75719;DHT22;64340;48.534;-3.036;2023-04-30T07:36:47;17.50;69.60
75719;DHT22;64340;48.534;-3.036;2023-04-30T07:39:13;17.50;69.60
75719;DHT22;64340;48.534;-3.036;2023-04-30T07:41:39;17.50;69.50
75719;DHT22;64340;48.534;-3.036;2023-04-30T07:44:05;17.50;69.60
75719;DHT22;64340;48.534;-3.036;2023-04-30T07:46:31;17.60;69.80
75719;DHT22;64340;48.534;-3.036;2023-04-30T07:48:57;17.60;69.90
75719;DHT22;64340;48.534;-3.036;2023-04-30T07:51:23;17.60;69.70
75719;DHT22;64340;48.534;-3.036;2023-04-30T07:53:51;17.60;70.40
75719;DHT22;64340;48.534;-3.036;2023-04-30T07:56:17;17.50;70.10
75719;DHT22;64340;48.534;-3.036;2023-04-30T07:58:44;17.30;70.80
75719;DHT22;64340;48.534;-3.036;2023-04-30T08:01:09;17.20;70.90
75719;DHT22;64340;48.534;-3.036;2023-04-30T08:03:35;17.00;71.60
75719;DHT22;64340;48.534;-3.036;2023-04-30T08:06:01;17.00;72.10
75719;DHT22;64340;48.534;-3.036;2023-04-30T08:08:27;17.00;72.30
75719;DHT22;64340;48.534;-3.036;2023-04-30T08:10:53;17.00;72.40
75719;DHT22;64340;48.534;-3.036;2023-04-30T08:13:18;17.00;72.80
75719;DHT22;64340;48.534;-3.036;2023-04-30T08:15:45;17.00;72.60
75719;DHT22;64340;48.534;-3.036;2023-04-30T08:18:11;17.10;72.70
75719;DHT22;64340;48.534;-3.036;2023-04-30T08:20:36;17.00;72.80
75719;DHT22;64340;48.534;-3.036;2023-04-30T08:23:03;17.00;72.60
75719;DHT22;64340;48.534;-3.036;2023-04-30T08:25:29;17.00;72.80
75719;DHT22;64340;48.534;-3.036;2023-04-30T08:27:56;16.90;73.20
75719;DHT22;64340;48.534;-3.036;2023-04-30T08:30:22;17.00;73.20
75719;DHT22;64340;48.534;-3.036;2023-04-30T08:32:48;17.00;73.60
75719;DHT22;64340;48.534;-3.036;2023-04-30T08:35:14;17.00;73.50
75719;DHT22;64340;48.534;-3.036;2023-04-30T08:37:41;17.00;73.90
75719;DHT22;64340;48.534;-3.036;2023-04-30T08:40:09;17.00;73.50
75719;DHT22;64340;48.534;-3.036;2023-04-30T08:42:37;17.00;74.30
75719;DHT22;64340;48.534;-3.036;2023-04-30T08:45:10;17.20;74.20
75719;DHT22;64340;48.534;-3.036;2023-04-30T08:47:37;17.40;73.80
75719;DHT22;64340;48.534;-3.036;2023-04-30T08:50:07;17.50;74.00
75719;DHT22;64340;48.534;-3.036;2023-04-30T08:52:34;17.50;73.60
75719;DHT22;64340;48.534;-3.036;2023-04-30T08:55:00;17.50;73.60
75719;DHT22;64340;48.534;-3.036;2023-04-30T08:57:26;17.50;73.90
75719;DHT22;64340;48.534;-3.036;2023-04-30T08:59:55;17.60;73.70
75719;DHT22;64340;48.534;-3.036;2023-04-30T09:02:21;17.60;73.50
75719;DHT22;64340;48.534;-3.036;2023-04-30T09:04:47;17.60;72.60
75719;DHT22;64340;48.534;-3.036;2023-04-30T09:07:14;17.40;73.10
75719;DHT22;64340;48.534;-3.036;2023-04-30T09:09:40;17.50;73.50
75719;DHT22;64340;48.534;-3.036;2023-04-30T09:12:15;17.50;73.30
75719;DHT22;64340;48.534;-3.036;2023-04-30T09:15:08;17.60;72.90
75719;DHT22;64340;48.534;-3.036;2023-04-30T09:17:36;17.70;72.90
75719;DHT22;64340;48.534;-3.036;2023-04-30T09:20:08;17.80;72.80
75719;DHT22;64340;48.534;-3.036;2023-04-30T09:22:39;17.80;72.50
75719;DHT22;64340;48.534;-3.036;2023-04-30T09:25:08;17.80;72.60
75719;DHT22;64340;48.534;-3.036;2023-04-30T09:27:34;17.80;73.20
75719;DHT22;64340;48.534;-3.036;2023-04-30T09:30:00;17.90;72.60
75719;DHT22;64340;48.534;-3.036;2023-04-30T09:32:26;17.70;71.50
75719;DHT22;64340;48.534;-3.036;2023-04-30T09:34:54;17.60;72.60
75719;DHT22;64340;48.534;-3.036;2023-04-30T09:37:20;17.80;73.00
75719;DHT22;64340;48.534;-3.036;2023-04-30T09:42:13;17.90;72.90
75719;DHT22;64340;48.534;-3.036;2023-04-30T09:44:40;18.00;72.70
75719;DHT22;64340;48.534;-3.036;2023-04-30T09:47:17;18.00;72.40
75719;DHT22;64340;48.534;-3.036;2023-04-30T09:49:50;18.00;72.20
75719;DHT22;64340;48.534;-3.036;2023-04-30T09:52:17;18.10;71.30
75719;DHT22;64340;48.534;-3.036;2023-04-30T09:54:44;18.00;71.60
75719;DHT22;64340;48.534;-3.036;2023-04-30T09:57:12;18.00;72.00
75719;DHT22;64340;48.534;-3.036;2023-04-30T09:59:44;18.00;72.00
75719;DHT22;64340;48.534;-3.036;2023-04-30T10:02:13;18.00;71.80
75719;DHT22;64340;48.534;-3.036;2023-04-30T10:04:43;18.00;71.70
75719;DHT22;64340;48.534;-3.036;2023-04-30T10:07:15;18.10;71.50
75719;DHT22;64340;48.534;-3.036;2023-04-30T10:10:08;18.10;71.40
75719;DHT22;64340;48.534;-3.036;2023-04-30T10:15:27;18.10;71.20
75719;DHT22;64340;48.534;-3.036;2023-04-30T10:18:05;18.10;71.10
75719;DHT22;64340;48.534;-3.036;2023-04-30T10:20:34;18.10;71.10
75719;DHT22;64340;48.534;-3.036;2023-04-30T10:23:01;18.10;71.50
75719;DHT22;64340;48.534;-3.036;2023-04-30T10:25:28;18.20;71.10
75719;DHT22;64340;48.534;-3.036;2023-04-30T10:27:54;18.20;71.60
75719;DHT22;64340;48.534;-3.036;2023-04-30T10:30:21;18.20;71.70
75719;DHT22;64340;48.534;-3.036;2023-04-30T10:33:02;18.20;71.50
75719;DHT22;64340;48.534;-3.036;2023-04-30T10:35:39;18.20;71.30
75719;DHT22;64340;48.534;-3.036;2023-04-30T10:38:14;18.20;70.90
75719;DHT22;64340;48.534;-3.036;2023-04-30T10:40:45;18.20;70.70
75719;DHT22;64340;48.534;-3.036;2023-04-30T10:43:11;18.30;70.60
75719;DHT22;64340;48.534;-3.036;2023-04-30T10:45:40;18.30;70.50
75719;DHT22;64340;48.534;-3.036;2023-04-30T10:48:08;18.30;70.50
75719;DHT22;64340;48.534;-3.036;2023-04-30T10:50:41;18.40;70.30
75719;DHT22;64340;48.534;-3.036;2023-04-30T10:53:16;18.40;70.30
75719;DHT22;64340;48.534;-3.036;2023-04-30T10:56:07;18.40;70.20
75719;DHT22;64340;48.534;-3.036;2023-04-30T10:58:40;18.40;70.00
75719;DHT22;64340;48.534;-3.036;2023-04-30T11:01:11;18.40;70.00
75719;DHT22;64340;48.534;-3.036;2023-04-30T11:03:40;18.40;70.00
75719;DHT22;64340;48.534;-3.036;2023-04-30T11:06:14;18.50;70.00
75719;DHT22;64340;48.534;-3.036;2023-04-30T11:08:44;18.50;69.90
75719;DHT22;64340;48.534;-3.036;2023-04-30T11:11:32;18.50;70.00
75719;DHT22;64340;48.534;-3.036;2023-04-30T11:14:00;18.50;70.00
75719;DHT22;64340;48.534;-3.036;2023-04-30T11:16:30;18.50;70.10
75719;DHT22;64340;48.534;-3.036;2023-04-30T11:19:05;18.60;70.00
75719;DHT22;64340;48.534;-3.036;2023-04-30T11:21:31;18.60;70.10
75719;DHT22;64340;48.534;-3.036;2023-04-30T11:24:02;18.60;70.00
75719;DHT22;64340;48.534;-3.036;2023-04-30T11:26:29;18.70;72.40
75719;DHT22;64340;48.534;-3.036;2023-04-30T11:28:56;18.70;71.00
75719;DHT22;64340;48.534;-3.036;2023-04-30T11:31:32;18.80;72.40
75719;DHT22;64340;48.534;-3.036;2023-04-30T11:33:59;18.70;71.70
75719;DHT22;64340;48.534;-3.036;2023-04-30T11:36:29;18.80;71.70
75719;DHT22;64340;48.534;-3.036;2023-04-30T11:38:58;18.80;71.60
75719;DHT22;64340;48.534;-3.036;2023-04-30T11:41:24;18.80;71.30
75719;DHT22;64340;48.534;-3.036;2023-04-30T11:43:51;18.80;71.50
75719;DHT22;64340;48.534;-3.036;2023-04-30T11:46:17;18.80;71.70
75719;DHT22;64340;48.534;-3.036;2023-04-30T11:48:44;18.80;71.50
75719;DHT22;64340;48.534;-3.036;2023-04-30T11:51:18;19.00;71.40
75719;DHT22;64340;48.534;-3.036;2023-04-30T11:53:49;19.10;70.60
75719;DHT22;64340;48.534;-3.036;2023-04-30T11:56:18;19.00;71.40
75719;DHT22;64340;48.534;-3.036;2023-04-30T11:58:46;19.10;71.40
75719;DHT22;64340;48.534;-3.036;2023-04-30T12:01:13;19.20;70.90
75719;DHT22;64340;48.534;-3.036;2023-04-30T12:03:47;19.40;70.80
75719;DHT22;64340;48.534;-3.036;2023-04-30T12:06:27;19.30;70.60
75719;DHT22;64340;48.534;-3.036;2023-04-30T12:08:54;19.20;71.00
75719;DHT22;64340;48.534;-3.036;2023-04-30T12:11:21;19.20;70.80
75719;DHT22;64340;48.534;-3.036;2023-04-30T12:14:10;19.20;70.60
75719;DHT22;64340;48.534;-3.036;2023-04-30T12:16:43;19.10;70.80
75719;DHT22;64340;48.534;-3.036;2023-04-30T12:19:22;19.10;71.30
75719;DHT22;64340;48.534;-3.036;2023-04-30T12:21:52;19.20;70.90
75719;DHT22;64340;48.534;-3.036;2023-04-30T12:24:19;19.10;70.60
75719;DHT22;64340;48.534;-3.036;2023-04-30T12:26:45;19.10;70.70
75719;DHT22;64340;48.534;-3.036;2023-04-30T12:29:15;19.10;70.90
75719;DHT22;64340;48.534;-3.036;2023-04-30T12:31:41;19.20;70.60
75719;DHT22;64340;48.534;-3.036;2023-04-30T12:34:09;19.20;70.60
75719;DHT22;64340;48.534;-3.036;2023-04-30T12:36:35;19.20;70.70
75719;DHT22;64340;48.534;-3.036;2023-04-30T12:39:07;19.20;70.50
75719;DHT22;64340;48.534;-3.036;2023-04-30T12:41:44;19.20;70.40
75719;DHT22;64340;48.534;-3.036;2023-04-30T12:44:23;19.20;70.40
75719;DHT22;64340;48.534;-3.036;2023-04-30T12:46:57;19.20;70.40
75719;DHT22;64340;48.534;-3.036;2023-04-30T12:49:33;19.20;70.50
75719;DHT22;64340;48.534;-3.036;2023-04-30T12:52:04;19.20;70.40
75719;DHT22;64340;48.534;-3.036;2023-04-30T12:54:32;19.20;70.50
75719;DHT22;64340;48.534;-3.036;2023-04-30T12:57:07;19.20;70.50
75719;DHT22;64340;48.534;-3.036;2023-04-30T12:59:36;19.10;70.60
75719;DHT22;64340;48.534;-3.036;2023-04-30T13:02:12;19.10;70.40
75719;DHT22;64340;48.534;-3.036;2023-04-30T13:04:39;19.10;70.50
75719;DHT22;64340;48.534;-3.036;2023-04-30T13:07:05;19.20;70.40
75719;DHT22;64340;48.534;-3.036;2023-04-30T13:09:36;19.20;70.20
75719;DHT22;64340;48.534;-3.036;2023-04-30T13:12:05;19.20;70.10
75719;DHT22;64340;48.534;-3.036;2023-04-30T13:14:31;19.20;70.20
75719;DHT22;64340;48.534;-3.036;2023-04-30T13:16:57;19.20;70.00
75719;DHT22;64340;48.534;-3.036;2023-04-30T13:19:23;19.20;70.00
75719;DHT22;64340;48.534;-3.036;2023-04-30T13:21:49;19.20;70.00
75719;DHT22;64340;48.534;-3.036;2023-04-30T13:24:15;19.20;70.10
75719;DHT22;64340;48.534;-3.036;2023-04-30T13:26:42;19.20;70.10
75719;DHT22;64340;48.534;-3.036;2023-04-30T13:29:08;19.10;70.20
75719;DHT22;64340;48.534;-3.036;2023-04-30T13:31:34;19.10;70.30
75719;DHT22;64340;48.534;-3.036;2023-04-30T13:34:00;19.10;70.30
75719;DHT22;64340;48.534;-3.036;2023-04-30T13:36:26;19.10;70.30
75719;DHT22;64340;48.534;-3.036;2023-04-30T13:38:53;19.10;70.30
75719;DHT22;64340;48.534;-3.036;2023-04-30T13:41:19;19.10;70.40
75719;DHT22;64340;48.534;-3.036;2023-04-30T13:43:46;19.10;70.40
75719;DHT22;64340;48.534;-3.036;2023-04-30T13:46:13;19.10;70.20
75719;DHT22;64340;48.534;-3.036;2023-04-30T13:48:39;19.20;70.00
75719;DHT22;64340;48.534;-3.036;2023-04-30T13:51:05;19.20;70.20
75719;DHT22;64340;48.534;-3.036;2023-04-30T13:53:31;19.20;70.00
75719;DHT22;64340;48.534;-3.036;2023-04-30T13:55:57;19.20;70.10
75719;DHT22;64340;48.534;-3.036;2023-04-30T13:58:24;19.20;70.00
75719;DHT22;64340;48.534;-3.036;2023-04-30T14:00:50;19.20;70.10
75719;DHT22;64340;48.534;-3.036;2023-04-30T14:03:18;19.20;70.30
75719;DHT22;64340;48.534;-3.036;2023-04-30T14:05:44;19.20;70.10
75719;DHT22;64340;48.534;-3.036;2023-04-30T14:08:09;19.20;70.00
75719;DHT22;64340;48.534;-3.036;2023-04-30T14:10:35;19.20;69.90
75719;DHT22;64340;48.534;-3.036;2023-04-30T14:13:02;19.20;70.10
75719;DHT22;64340;48.534;-3.036;2023-04-30T14:15:29;19.20;69.60
75719;DHT22;64340;48.534;-3.036;2023-04-30T14:17:57;19.30;69.60
75719;DHT22;64340;48.534;-3.036;2023-04-30T14:20:25;19.30;69.30
75719;DHT22;64340;48.534;-3.036;2023-04-30T14:22:51;19.30;69.90
75719;DHT22;64340;48.534;-3.036;2023-04-30T14:25:17;19.30;69.70
75719;DHT22;64340;48.534;-3.036;2023-04-30T14:27:44;19.30;69.70
75719;DHT22;64340;48.534;-3.036;2023-04-30T14:30:10;19.20;69.70
75719;DHT22;64340;48.534;-3.036;2023-04-30T14:32:36;19.30;69.70
75719;DHT22;64340;48.534;-3.036;2023-04-30T14:35:02;19.30;69.90
75719;DHT22;64340;48.534;-3.036;2023-04-30T14:37:28;19.30;67.90
75719;DHT22;64340;48.534;-3.036;2023-04-30T14:39:54;19.20;67.70
75719;DHT22;64340;48.534;-3.036;2023-04-30T14:42:20;19.20;68.20
75719;DHT22;64340;48.534;-3.036;2023-04-30T14:44:46;19.30;68.30
75719;DHT22;64340;48.534;-3.036;2023-04-30T14:47:12;19.30;69.10
75719;DHT22;64340;48.534;-3.036;2023-04-30T14:49:39;19.30;69.00
75719;DHT22;64340;48.534;-3.036;2023-04-30T14:52:05;19.30;68.40
75719;DHT22;64340;48.534;-3.036;2023-04-30T14:54:31;19.30;68.70
75719;DHT22;64340;48.534;-3.036;2023-04-30T14:56:57;19.30;68.70
75719;DHT22;64340;48.534;-3.036;2023-04-30T14:59:22;19.30;68.60
75719;DHT22;64340;48.534;-3.036;2023-04-30T15:01:48;19.40;68.50
75719;DHT22;64340;48.534;-3.036;2023-04-30T15:04:14;19.40;68.50
75719;DHT22;64340;48.534;-3.036;2023-04-30T15:06:40;19.50;68.50
75719;DHT22;64340;48.534;-3.036;2023-04-30T15:09:06;19.40;68.60
75719;DHT22;64340;48.534;-3.036;2023-04-30T15:11:32;19.40;68.70
75719;DHT22;64340;48.534;-3.036;2023-04-30T15:13:58;19.40;68.10
75719;DHT22;64340;48.534;-3.036;2023-04-30T15:16:24;19.40;68.40
75719;DHT22;64340;48.534;-3.036;2023-04-30T15:18:50;19.40;68.10
75719;DHT22;64340;48.534;-3.036;2023-04-30T15:21:16;19.40;67.50
75719;DHT22;64340;48.534;-3.036;2023-04-30T15:23:43;19.40;67.80
75719;DHT22;64340;48.534;-3.036;2023-04-30T15:26:08;19.40;68.20
75719;DHT22;64340;48.534;-3.036;2023-04-30T15:28:34;19.40;68.40
75719;DHT22;64340;48.534;-3.036;2023-04-30T15:31:00;19.30;68.60
75719;DHT22;64340;48.534;-3.036;2023-04-30T15:33:26;19.30;68.80
75719;DHT22;64340;48.534;-3.036;2023-04-30T15:35:53;19.30;68.90
75719;DHT22;64340;48.534;-3.036;2023-04-30T15:38:20;19.30;69.10
75719;DHT22;64340;48.534;-3.036;2023-04-30T15:40:46;19.20;69.10